Time;durP1;ratioP1;P1;durP2;ratioP2;P2;SDS_P1;SDS_P2;PMS_P1;PMS_P2;Temp;Humidity;BMP_temperature;BMP_pressure;BME280_temperature;BME280_humidity;BME280_pressure;Samples;Min_cycle;Max_cycle;Signal;HPM_P1;HPM_P2
2022/10/12 00:01:20;;;;;;;9.13;3.90;;;8.30;99.90;;;;;;5064181;28;20498;-87
2022/10/12 00:03:47;;;;;;;6.07;4.53;;;8.30;99.90;;;;;;5065007;28;20535;-86
2022/10/12 00:06:16;;;;;;;7.90;4.40;;;8.30;99.90;;;;;;5064998;28;20455;-87
2022/10/12 00:08:44;;;;;;;9.63;4.47;;;8.20;99.90;;;;;;5064954;28;20463;-86
2022/10/12 00:11:14;;;;;;;7.93;4.17;;;8.20;99.90;;;;;;5064445;28;20479;-86
2022/10/12 00:13:41;;;;;;;8.07;4.70;;;8.10;99.90;;;;;;5063677;28;20461;-85
2022/10/12 00:16:11;;;;;;;7.93;3.80;;;8.20;99.90;;;;;;5064284;28;20452;-86
2022/10/12 00:18:39;;;;;;;6.70;4.00;;;8.20;99.90;;;;;;5062827;28;20486;-86
2022/10/12 00:21:08;;;;;;;9.20;3.80;;;8.10;99.90;;;;;;5063274;28;20503;-86
2022/10/12 00:23:36;;;;;;;6.97;4.00;;;8.10;99.90;;;;;;5069550;28;20452;-85
2022/10/12 00:26:04;;;;;;;7.10;4.30;;;8.10;99.90;;;;;;5069084;28;20448;-85
2022/10/12 00:28:31;;;;;;;5.80;3.67;;;8.10;99.90;;;;;;5069587;28;20558;-85
2022/10/12 00:30:58;;;;;;;6.03;3.83;;;8.00;99.90;;;;;;5068886;28;20444;-86
2022/10/12 00:33:27;;;;;;;8.67;4.60;;;8.00;99.90;;;;;;5068761;28;20978;-86
2022/10/12 00:35:55;;;;;;;7.77;3.73;;;8.00;99.90;;;;;;5069704;28;20474;-85
2022/10/12 00:38:22;;;;;;;10.37;4.60;;;8.00;99.90;;;;;;5069874;28;20487;-85
2022/10/12 00:40:49;;;;;;;9.30;4.30;;;8.00;99.90;;;;;;5070556;28;20560;-86
2022/10/12 00:43:36;;;;;;;8.00;5.60;;;8.00;99.90;;;;;;5069919;28;20448;-84
2022/10/12 00:46:06;;;;;;;6.70;3.90;;;8.00;99.90;;;;;;5071045;28;20438;-84
2022/10/12 00:48:33;;;;;;;6.50;4.60;;;8.00;99.90;;;;;;5069923;28;20473;-85
2022/10/12 00:51:02;;;;;;;8.00;4.60;;;8.00;99.90;;;;;;5070515;28;20849;-85
2022/10/12 00:53:34;;;;;;;8.40;4.57;;;8.00;99.90;;;;;;5070504;28;20448;-84
2022/10/12 00:56:05;;;;;;;9.07;5.17;;;8.00;99.90;;;;;;5070538;28;20447;-86
2022/10/12 00:58:33;;;;;;;9.07;4.60;;;8.00;99.90;;;;;;5054531;28;20468;-85
2022/10/12 01:01:01;;;;;;;9.13;5.03;;;8.00;99.90;;;;;;5070310;28;20488;-86
2022/10/12 01:03:28;;;;;;;6.77;4.43;;;8.00;99.90;;;;;;5069655;28;20904;-86
2022/10/12 01:05:56;;;;;;;8.37;4.63;;;8.00;99.90;;;;;;5069082;28;20470;-86
2022/10/12 01:08:24;;;;;;;10.20;4.97;;;8.00;99.90;;;;;;5068625;28;20478;-86
2022/10/12 01:10:50;;;;;;;6.50;4.03;;;7.90;99.90;;;;;;5068592;28;20526;-85
2022/10/12 01:13:18;;;;;;;8.30;4.00;;;7.90;99.90;;;;;;5066319;28;20546;-85
2022/10/12 01:15:52;;;;;;;5.93;3.80;;;7.90;99.90;;;;;;5066514;28;20451;-86
2022/10/12 01:18:25;;;;;;;10.50;4.30;;;8.00;99.90;;;;;;5068554;28;20500;-86
2022/10/12 01:21:06;;;;;;;6.80;3.57;;;8.00;99.90;;;;;;5068473;28;20487;-84
2022/10/12 01:24:11;;;;;;;5.27;3.90;;;7.90;99.90;;;;;;5068462;28;20448;-86
2022/10/12 01:27:17;;;;;;;5.80;3.90;;;7.90;99.90;;;;;;5068000;28;20557;-86
2022/10/12 01:30:14;;;;;;;8.13;4.10;;;7.80;99.90;;;;;;5048855;28;20461;-84
2022/10/12 01:33:06;;;;;;;6.20;3.60;;;7.70;99.90;;;;;;5067893;28;20448;-85
2022/10/12 01:35:39;;;;;;;7.60;4.23;;;7.80;99.90;;;;;;5069158;28;20461;-85
2022/10/12 01:38:17;;;;;;;9.43;4.30;;;7.70;99.90;;;;;;5068200;28;20475;-85
2022/10/12 01:40:49;;;;;;;8.37;4.27;;;7.70;99.90;;;;;;5067336;28;20534;-85
2022/10/12 01:43:17;;;;;;;6.60;3.93;;;7.70;99.90;;;;;;5068662;28;20447;-85
2022/10/12 01:45:45;;;;;;;7.63;4.10;;;7.60;99.90;;;;;;5068310;28;20478;-85
2022/10/12 01:48:12;;;;;;;6.93;3.70;;;7.60;99.90;;;;;;5068072;28;20468;-86
2022/10/12 01:50:48;;;;;;;5.87;3.87;;;7.60;99.90;;;;;;5070410;28;20889;-84
2022/10/12 01:53:28;;;;;;;7.40;3.40;;;7.60;99.90;;;;;;5087524;28;20477;-86
2022/10/12 01:56:01;;;;;;;6.90;3.73;;;7.60;99.90;;;;;;5078868;28;20509;-85
2022/10/12 01:58:37;;;;;;;5.87;3.83;;;7.60;99.90;;;;;;5067093;28;20475;-86
2022/10/12 02:01:18;;;;;;;6.63;3.60;;;7.60;99.90;;;;;;5067297;28;20483;-84
2022/10/12 02:03:51;;;;;;;7.10;3.60;;;7.60;99.90;;;;;;5068839;28;20458;-85
2022/10/12 02:06:21;;;;;;;10.77;4.30;;;7.60;99.90;;;;;;5066845;28;20519;-85
2022/10/12 02:08:55;;;;;;;8.27;4.10;;;7.60;99.90;;;;;;5067944;28;20470;-85
2022/10/12 02:11:25;;;;;;;5.97;3.33;;;7.60;99.90;;;;;;5067799;28;20454;-86
2022/10/12 02:13:56;;;;;;;5.80;3.67;;;7.50;99.90;;;;;;5068220;28;20452;-85
2022/10/12 02:16:29;;;;;;;8.17;3.40;;;7.50;99.90;;;;;;5066963;28;20455;-85
2022/10/12 02:18:59;;;;;;;5.40;3.77;;;7.50;99.90;;;;;;5067242;28;20474;-84
2022/10/12 02:21:31;;;;;;;8.70;4.50;;;7.50;99.90;;;;;;5065464;28;20480;-86
2022/10/12 02:24:01;;;;;;;7.10;3.70;;;7.50;99.90;;;;;;5061082;28;20429;-86
2022/10/12 02:26:30;;;;;;;6.97;3.83;;;7.50;99.90;;;;;;5061196;28;20462;-85
2022/10/12 02:29:00;;;;;;;6.70;3.77;;;7.50;99.90;;;;;;5061572;28;20483;-86
2022/10/12 02:31:37;;;;;;;6.47;3.73;;;7.50;99.90;;;;;;5061339;28;20446;-86
2022/10/12 02:34:11;;;;;;;6.17;3.83;;;7.40;99.90;;;;;;5059930;28;20458;-86
2022/10/12 02:36:45;;;;;;;6.50;4.30;;;7.50;99.90;;;;;;5060582;28;20452;-86
2022/10/12 02:39:15;;;;;;;6.00;3.60;;;7.50;99.90;;;;;;5060382;28;20473;-85
2022/10/12 02:41:47;;;;;;;8.57;4.50;;;7.50;99.90;;;;;;5060101;28;20501;-85
2022/10/12 02:44:16;;;;;;;8.87;4.23;;;7.40;99.90;;;;;;5066533;28;20456;-86
2022/10/12 02:46:47;;;;;;;5.90;4.20;;;7.30;99.90;;;;;;5068132;28;20469;-84
2022/10/12 02:49:15;;;;;;;8.03;3.57;;;7.30;99.90;;;;;;5070940;28;20481;-84
2022/10/12 02:51:43;;;;;;;5.93;4.40;;;7.30;99.90;;;;;;5072475;28;20480;-84
2022/10/12 02:54:10;;;;;;;8.40;4.20;;;7.30;99.90;;;;;;5070861;28;20469;-86
2022/10/12 02:56:42;;;;;;;6.20;4.20;;;7.20;99.90;;;;;;5070755;28;20956;-85
2022/10/12 02:59:09;;;;;;;8.47;4.67;;;7.30;99.90;;;;;;5070628;28;20483;-84
2022/10/12 03:01:36;;;;;;;6.47;4.20;;;7.30;99.90;;;;;;5068447;28;20574;-85
2022/10/12 03:04:04;;;;;;;8.83;4.33;;;7.20;99.90;;;;;;5070707;28;20452;-85
2022/10/12 03:06:31;;;;;;;6.13;3.77;;;7.10;99.90;;;;;;5058016;28;20459;-84
2022/10/12 03:08:58;;;;;;;12.87;3.77;;;7.10;99.90;;;;;;5066741;28;20479;-86
2022/10/12 03:11:25;;;;;;;7.87;3.43;;;7.20;99.90;;;;;;5067182;28;20521;-85
2022/10/12 03:13:52;;;;;;;9.63;4.20;;;7.20;99.90;;;;;;5068317;28;20455;-84
2022/10/12 03:16:19;;;;;;;6.53;3.90;;;7.20;99.90;;;;;;5068383;28;20460;-84
2022/10/12 03:18:46;;;;;;;5.50;3.87;;;7.20;99.90;;;;;;5070523;28;20470;-86
2022/10/12 03:21:14;;;;;;;9.63;3.70;;;7.20;99.90;;;;;;5085550;28;20490;-86
2022/10/12 03:23:41;;;;;;;9.60;4.50;;;7.10;99.90;;;;;;5084528;28;20450;-83
2022/10/12 03:26:08;;;;;;;6.93;3.93;;;7.10;99.90;;;;;;5064947;28;20457;-85
2022/10/12 03:28:35;;;;;;;9.33;4.30;;;7.00;99.90;;;;;;5070300;28;21086;-85
2022/10/12 03:31:02;;;;;;;6.03;3.77;;;7.00;99.90;;;;;;5065661;28;20452;-85
2022/10/12 03:33:29;;;;;;;5.73;3.50;;;7.10;99.90;;;;;;5068598;28;20443;-84
2022/10/12 03:35:56;;;;;;;7.60;4.33;;;7.10;99.90;;;;;;5064145;28;20531;-85
2022/10/12 03:38:24;;;;;;;9.43;4.90;;;7.00;99.90;;;;;;5063382;28;20478;-84
2022/10/12 03:40:51;;;;;;;5.70;4.40;;;7.00;99.90;;;;;;5066411;28;20541;-85
2022/10/12 03:43:17;;;;;;;7.63;4.17;;;7.00;99.90;;;;;;5063816;28;20498;-85
2022/10/12 03:45:44;;;;;;;8.90;4.60;;;7.00;99.90;;;;;;5060150;28;20461;-85
2022/10/12 03:48:11;;;;;;;7.30;3.53;;;7.00;99.90;;;;;;5064925;28;20541;-85
2022/10/12 03:50:39;;;;;;;6.27;3.90;;;7.00;99.90;;;;;;5065486;28;20456;-86
2022/10/12 03:53:06;;;;;;;5.43;3.70;;;7.00;99.90;;;;;;5058344;28;20464;-85
2022/10/12 03:55:34;;;;;;;6.70;3.50;;;7.00;99.90;;;;;;5057332;28;20456;-85
2022/10/12 03:58:01;;;;;;;8.70;4.20;;;7.00;99.90;;;;;;5057781;28;20483;-85
2022/10/12 04:00:28;;;;;;;6.37;3.40;;;6.90;99.90;;;;;;5067014;28;20519;-84
2022/10/12 04:02:55;;;;;;;7.53;3.70;;;6.90;99.90;;;;;;5059769;28;20495;-85
2022/10/12 04:05:22;;;;;;;9.33;4.30;;;7.00;99.90;;;;;;5061344;28;20444;-85
2022/10/12 04:07:49;;;;;;;9.07;3.87;;;6.90;99.90;;;;;;5065384;28;20468;-83
2022/10/12 04:10:16;;;;;;;7.10;3.43;;;7.00;99.90;;;;;;5057775;28;20455;-83
2022/10/12 04:12:44;;;;;;;5.07;2.90;;;7.00;99.90;;;;;;5056192;28;20452;-86
2022/10/12 04:15:11;;;;;;;6.57;3.07;;;7.00;99.90;;;;;;5065614;28;20465;-85
2022/10/12 04:17:38;;;;;;;9.80;4.13;;;6.90;99.90;;;;;;5057323;28;20475;-85
2022/10/12 04:20:06;;;;;;;6.70;3.57;;;6.80;99.90;;;;;;5060967;28;20443;-84
2022/10/12 04:22:33;;;;;;;6.23;4.17;;;6.80;99.90;;;;;;5067653;28;20474;-84
2022/10/12 04:25:00;;;;;;;8.33;3.70;;;6.80;99.90;;;;;;5057247;28;20456;-85
2022/10/12 04:27:27;;;;;;;5.87;3.50;;;6.80;99.90;;;;;;5058514;28;20936;-85
2022/10/12 04:29:55;;;;;;;6.53;4.03;;;6.90;99.90;;;;;;5062097;28;20475;-84
2022/10/12 04:32:21;;;;;;;8.90;3.90;;;7.00;99.90;;;;;;5060207;28;20447;-84
2022/10/12 04:34:48;;;;;;;8.07;4.03;;;7.00;99.90;;;;;;5058850;28;20455;-83
2022/10/12 04:37:15;;;;;;;8.20;5.20;;;6.90;99.90;;;;;;5053927;28;20459;-84
2022/10/12 04:39:42;;;;;;;11.70;4.30;;;6.90;99.90;;;;;;5056124;28;20452;-83
2022/10/12 04:42:09;;;;;;;8.67;4.43;;;6.90;99.90;;;;;;5058199;28;20505;-84
2022/10/12 04:44:35;;;;;;;6.67;3.70;;;7.00;99.90;;;;;;5057769;28;20455;-82
2022/10/12 04:47:03;;;;;;;6.60;3.80;;;7.10;99.90;;;;;;5058303;28;20455;-84
2022/10/12 04:49:31;;;;;;;9.10;4.47;;;7.10;99.90;;;;;;5057355;28;20471;-83
2022/10/12 04:51:57;;;;;;;6.67;3.80;;;7.00;99.90;;;;;;5058715;28;20457;-84
2022/10/12 04:54:24;;;;;;;10.23;4.43;;;7.10;99.90;;;;;;5060772;28;20962;-84
2022/10/12 04:56:51;;;;;;;5.93;4.27;;;7.00;99.90;;;;;;5062086;28;20455;-84
2022/10/12 04:59:18;;;;;;;8.67;4.07;;;7.00;99.90;;;;;;5060896;28;20479;-83
2022/10/12 05:01:45;;;;;;;13.00;4.73;;;6.90;99.90;;;;;;5060751;28;20486;-84
2022/10/12 05:04:13;;;;;;;6.70;4.10;;;6.80;99.90;;;;;;5061977;28;20447;-84
2022/10/12 05:06:39;;;;;;;9.13;4.07;;;7.00;99.90;;;;;;5060937;28;20455;-84
2022/10/12 05:09:06;;;;;;;5.83;3.73;;;7.00;99.90;;;;;;5060895;28;20472;-84
2022/10/12 05:11:33;;;;;;;6.20;3.47;;;7.00;99.90;;;;;;5061681;28;20459;-84
2022/10/12 05:14:00;;;;;;;8.43;3.80;;;7.10;99.90;;;;;;5062049;28;20549;-85
2022/10/12 05:16:28;;;;;;;5.50;3.40;;;7.00;99.90;;;;;;5062246;28;20458;-83
2022/10/12 05:18:55;;;;;;;4.97;3.60;;;7.10;99.90;;;;;;5062081;28;20476;-85
2022/10/12 05:21:23;;;;;;;5.73;4.30;;;7.10;99.90;;;;;;5061903;28;20452;-85
2022/10/12 05:23:50;;;;;;;5.73;4.10;;;7.20;99.90;;;;;;5063133;28;20491;-84
2022/10/12 05:26:17;;;;;;;6.73;3.40;;;7.20;99.90;;;;;;5042685;28;20461;-84
2022/10/12 05:28:44;;;;;;;7.47;4.13;;;7.20;99.90;;;;;;5048756;28;20506;-85
2022/10/12 05:31:11;;;;;;;8.40;3.90;;;7.10;99.90;;;;;;5062701;28;20542;-84
2022/10/12 05:33:38;;;;;;;7.53;4.53;;;7.10;99.90;;;;;;5061189;28;20526;-85
2022/10/12 05:36:05;;;;;;;7.03;4.10;;;7.20;99.90;;;;;;5055907;28;20530;-85
2022/10/12 05:38:33;;;;;;;7.20;4.07;;;7.20;99.90;;;;;;5052587;28;20590;-85
2022/10/12 05:41:03;;;;;;;13.77;4.00;;;7.20;99.90;;;;;;5053138;28;20458;-85
2022/10/12 05:43:30;;;;;;;8.10;4.10;;;7.20;99.90;;;;;;5053365;28;20494;-85
2022/10/12 05:45:57;;;;;;;6.53;4.27;;;7.20;99.90;;;;;;5052054;28;20709;-85
2022/10/12 05:48:27;;;;;;;6.60;3.93;;;7.10;99.90;;;;;;5051993;28;20489;-85
2022/10/12 05:50:54;;;;;;;9.97;4.47;;;7.10;99.90;;;;;;5052559;28;20451;-86
2022/10/12 05:53:21;;;;;;;7.90;4.33;;;7.10;99.90;;;;;;5052485;28;20453;-86
2022/10/12 05:55:53;;;;;;;9.60;4.13;;;6.90;99.90;;;;;;5052828;28;20458;-85
2022/10/12 05:58:20;;;;;;;8.53;4.40;;;6.80;99.90;;;;;;5051521;28;20485;-86
2022/10/12 06:00:47;;;;;;;10.67;5.17;;;6.90;99.90;;;;;;5052351;28;20451;-86
2022/10/12 06:03:14;;;;;;;7.07;4.37;;;6.80;99.90;;;;;;5051964;28;20487;-86
2022/10/12 06:05:42;;;;;;;10.90;4.37;;;6.80;99.90;;;;;;5052111;28;20447;-85
2022/10/12 06:08:09;;;;;;;11.20;5.40;;;6.70;99.90;;;;;;5051867;28;20482;-86
2022/10/12 06:10:35;;;;;;;13.13;5.10;;;6.70;99.90;;;;;;5052791;28;20526;-85
2022/10/12 06:13:04;;;;;;;9.50;4.00;;;6.80;99.90;;;;;;5051477;28;20451;-86
2022/10/12 06:15:31;;;;;;;10.53;4.17;;;6.90;99.90;;;;;;5045796;28;20454;-87
2022/10/12 06:17:58;;;;;;;7.13;4.40;;;6.90;99.90;;;;;;5049919;28;20995;-86
2022/10/12 06:20:24;;;;;;;5.80;3.87;;;6.90;99.90;;;;;;5049317;28;20455;-86
2022/10/12 06:22:51;;;;;;;12.13;4.13;;;6.90;99.90;;;;;;5051861;28;20874;-85
2022/10/12 06:25:18;;;;;;;8.00;4.20;;;6.90;99.90;;;;;;5051231;28;20509;-86
2022/10/12 06:27:45;;;;;;;7.50;3.70;;;6.90;99.90;;;;;;5049369;28;20466;-87
2022/10/12 06:30:16;;;;;;;8.67;4.17;;;6.90;99.90;;;;;;5049327;28;21089;-87
2022/10/12 06:32:46;;;;;;;7.83;4.67;;;7.00;99.90;;;;;;5034384;28;20451;-87
2022/10/12 06:35:14;;;;;;;8.17;4.27;;;6.90;99.90;;;;;;5036202;28;20449;-85
2022/10/12 06:37:41;;;;;;;8.37;4.00;;;6.90;99.90;;;;;;5052028;28;20501;-87
2022/10/12 06:40:11;;;;;;;10.23;4.80;;;6.90;99.90;;;;;;5051508;28;20880;-86
2022/10/12 06:42:38;;;;;;;6.90;4.00;;;6.90;99.90;;;;;;5053570;28;20490;-87
2022/10/12 06:45:05;;;;;;;6.17;4.13;;;7.00;99.90;;;;;;5049608;28;20546;-87
2022/10/12 06:47:34;;;;;;;10.17;4.60;;;6.90;99.90;;;;;;5047895;28;20464;-85
2022/10/12 06:50:00;;;;;;;6.50;4.67;;;7.10;99.90;;;;;;5045161;28;20462;-87
2022/10/12 06:52:27;;;;;;;14.73;4.57;;;7.10;99.90;;;;;;5046301;28;20451;-87
2022/10/12 06:54:54;;;;;;;9.33;4.70;;;7.10;99.90;;;;;;5046178;28;20448;-86
2022/10/12 06:57:21;;;;;;;8.60;4.47;;;7.20;99.90;;;;;;5048382;28;20523;-85
2022/10/12 06:59:48;;;;;;;9.67;5.40;;;7.20;99.90;;;;;;5050886;28;20458;-87
2022/10/12 07:02:14;;;;;;;16.87;5.10;;;7.30;99.90;;;;;;5051447;28;20550;-87
2022/10/12 07:04:43;;;;;;;10.97;4.67;;;7.40;99.90;;;;;;5052029;28;20459;-86
2022/10/12 07:07:09;;;;;;;14.63;5.43;;;7.50;99.90;;;;;;5051741;28;20999;-85
2022/10/12 07:09:36;;;;;;;12.70;5.10;;;7.50;99.90;;;;;;5052758;28;20500;-86
2022/10/12 07:12:04;;;;;;;17.70;5.10;;;7.60;99.90;;;;;;5067032;28;20549;-87
2022/10/12 07:14:30;;;;;;;12.53;6.03;;;7.70;99.90;;;;;;5048130;28;20449;-86
2022/10/12 07:16:57;;;;;;;8.53;4.67;;;7.70;99.90;;;;;;5044871;28;20459;-86
2022/10/12 07:19:24;;;;;;;7.80;4.37;;;7.80;99.90;;;;;;5045057;28;20487;-87
2022/10/12 07:21:52;;;;;;;7.53;4.90;;;7.90;99.90;;;;;;5052282;28;20462;-87
2022/10/12 07:24:19;;;;;;;11.00;4.30;;;8.00;99.90;;;;;;5052680;28;20490;-88
2022/10/12 07:26:46;;;;;;;8.83;4.87;;;8.00;99.90;;;;;;5051639;28;20460;-87
2022/10/12 07:29:13;;;;;;;10.47;5.10;;;8.10;99.90;;;;;;5049944;28;20569;-87
2022/10/12 07:31:41;;;;;;;12.90;4.60;;;8.10;99.90;;;;;;5054323;28;20499;-87
2022/10/12 07:34:08;;;;;;;6.40;3.83;;;8.10;99.90;;;;;;5050023;28;20452;-88
2022/10/12 07:36:34;;;;;;;9.77;4.43;;;8.20;99.90;;;;;;5055263;28;20461;-87
2022/10/12 07:39:02;;;;;;;7.43;4.10;;;8.30;99.90;;;;;;5056724;28;20482;-88
2022/10/12 07:41:29;;;;;;;7.00;4.00;;;8.30;99.90;;;;;;5054949;28;20467;-87
2022/10/12 07:43:56;;;;;;;8.40;3.73;;;8.40;99.90;;;;;;5052554;28;20484;-87
2022/10/12 07:46:24;;;;;;;9.23;4.60;;;8.40;99.90;;;;;;5055622;28;20460;-87
2022/10/12 07:48:50;;;;;;;6.93;3.47;;;8.50;99.90;;;;;;5053954;28;20643;-88
2022/10/12 07:51:18;;;;;;;8.50;4.23;;;8.60;99.90;;;;;;5054949;28;20960;-87
2022/10/12 07:53:45;;;;;;;12.20;4.20;;;8.70;99.90;;;;;;5053154;28;20537;-87
2022/10/12 07:56:14;;;;;;;9.97;4.53;;;8.80;99.90;;;;;;5055639;28;20493;-87
2022/10/12 07:58:42;;;;;;;5.53;4.00;;;8.90;99.90;;;;;;5057276;28;20482;-87
2022/10/12 08:01:10;;;;;;;12.70;5.70;;;9.00;99.90;;;;;;5058147;28;20455;-88
2022/10/12 08:03:37;;;;;;;8.43;4.03;;;9.20;99.90;;;;;;5057737;28;21032;-88
2022/10/12 08:06:09;;;;;;;9.83;4.67;;;9.30;99.90;;;;;;5056098;28;20539;-87
2022/10/12 08:08:36;;;;;;;9.57;4.60;;;9.40;99.90;;;;;;5053042;28;20485;-87
2022/10/12 08:11:03;;;;;;;9.93;3.60;;;9.60;99.90;;;;;;5055950;28;20806;-89
2022/10/12 08:13:32;;;;;;;8.67;3.70;;;9.80;99.90;;;;;;5054949;28;20453;-87
2022/10/12 08:15:59;;;;;;;8.93;3.03;;;9.90;99.90;;;;;;5044540;28;20551;-88
2022/10/12 08:18:43;;;;;;;9.67;3.20;;;10.10;99.90;;;;;;5077120;22;20502;-87
2022/10/12 08:21:12;;;;;;;8.67;2.70;;;10.10;99.90;;;;;;5075358;28;20449;-87
2022/10/12 08:23:39;;;;;;;8.90;3.10;;;10.40;99.90;;;;;;5068497;28;20488;-86
2022/10/12 08:26:06;;;;;;;5.90;3.27;;;10.50;99.90;;;;;;5071625;28;20460;-86
2022/10/12 08:28:35;;;;;;;8.50;3.00;;;10.70;99.90;;;;;;5068398;28;20482;-86
2022/10/12 08:31:08;;;;;;;4.83;2.90;;;10.80;99.90;;;;;;5064450;28;20450;-86
2022/10/12 08:33:35;;;;;;;4.27;2.60;;;10.90;99.90;;;;;;5055092;28;20451;-87
2022/10/12 08:36:03;;;;;;;7.27;2.80;;;11.10;99.90;;;;;;5053700;28;20883;-86
2022/10/12 08:38:33;;;;;;;5.80;2.60;;;11.20;99.90;;;;;;5053345;28;20482;-86
2022/10/12 08:41:11;;;;;;;7.60;3.00;;;11.30;99.90;;;;;;5052837;28;20459;-86
2022/10/12 08:43:53;;;;;;;8.83;2.57;;;11.40;99.90;;;;;;5052720;28;21085;-87
2022/10/12 08:46:22;;;;;;;6.13;3.03;;;11.40;99.90;;;;;;5052955;28;20458;-86
2022/10/12 08:48:58;;;;;;;7.53;2.87;;;11.50;99.90;;;;;;5052890;28;20847;-84
2022/10/12 08:51:30;;;;;;;11.10;2.80;;;11.50;99.90;;;;;;5053032;28;20785;-86
2022/10/12 08:54:02;;;;;;;6.33;2.87;;;11.60;99.90;;;;;;5053182;28;20820;-86
2022/10/12 08:56:29;;;;;;;9.73;3.10;;;11.70;99.90;;;;;;5052374;28;20471;-86
2022/10/12 08:59:01;;;;;;;14.47;3.33;;;11.80;99.90;;;;;;5044693;28;20492;-87
2022/10/12 09:01:32;;;;;;;8.80;3.23;;;11.80;99.90;;;;;;5055683;28;20466;-85
2022/10/12 09:04:31;;;;;;;8.67;3.43;;;11.90;99.90;;;;;;5046167;28;20579;-85
2022/10/12 09:07:02;;;;;;;6.93;3.00;;;11.90;99.90;;;;;;5055216;28;20520;-85
2022/10/12 09:09:46;;;;;;;8.03;2.90;;;12.00;99.90;;;;;;5052740;28;20483;-85
2022/10/12 09:12:25;;;;;;;7.20;3.10;;;12.00;99.90;;;;;;5056004;28;20456;-86
2022/10/12 09:14:59;;;;;;;8.40;2.70;;;12.10;99.90;;;;;;5047454;28;20457;-86
2022/10/12 09:17:30;;;;;;;8.40;2.90;;;12.20;99.90;;;;;;5049230;28;20481;-86
2022/10/12 09:20:04;;;;;;;9.60;2.17;;;12.40;99.90;;;;;;5045917;28;20458;-86
2022/10/12 09:22:34;;;;;;;5.97;2.60;;;12.50;99.90;;;;;;5051331;28;20983;-86
2022/10/12 09:25:02;;;;;;;12.03;3.10;;;12.60;99.90;;;;;;5059832;28;20487;-86
2022/10/12 09:27:31;;;;;;;9.90;3.30;;;12.50;99.90;;;;;;5051374;28;20476;-86
2022/10/12 09:30:02;;;;;;;10.63;3.47;;;12.60;99.90;;;;;;5051843;28;21041;-88
2022/10/12 09:32:57;;;;;;;10.10;3.17;;;12.70;99.90;;;;;;5055857;28;20483;-88
2022/10/12 09:35:24;;;;;;;8.60;3.00;;;12.70;99.90;;;;;;5054487;28;20467;-87
2022/10/12 09:37:53;;;;;;;8.40;2.90;;;12.80;99.90;;;;;;5056995;28;20470;-87
2022/10/12 09:40:30;;;;;;;13.17;3.57;;;12.90;99.90;;;;;;5059942;28;20459;-87
2022/10/12 09:43:03;;;;;;;8.77;3.17;;;13.10;99.90;;;;;;5057867;28;20913;-87
2022/10/12 09:45:34;;;;;;;10.53;3.47;;;13.20;99.90;;;;;;5051837;28;20455;-88
2022/10/12 09:48:25;;;;;;;8.10;3.57;;;13.20;99.90;;;;;;5049128;28;20482;-87
2022/10/12 09:50:56;;;;;;;11.37;3.77;;;13.30;99.90;;;;;;5032546;28;20861;-88
2022/10/12 09:53:31;;;;;;;6.43;3.10;;;13.40;99.90;;;;;;5051352;28;20478;-88
2022/10/12 09:56:01;;;;;;;8.80;3.17;;;13.40;99.90;;;;;;5051923;28;20459;-88
2022/10/12 09:58:29;;;;;;;9.23;3.43;;;13.50;99.90;;;;;;5052164;28;20463;-88
2022/10/12 10:01:22;;;;;;;7.80;3.50;;;13.50;99.90;;;;;;5051738;28;20451;-88
2022/10/12 10:04:04;;;;;;;7.40;3.30;;;13.70;99.90;;;;;;5052548;28;20534;-88
2022/10/12 10:06:31;;;;;;;11.33;3.50;;;13.90;99.90;;;;;;5053111;28;20452;-88
2022/10/12 10:08:58;;;;;;;9.80;3.20;;;14.10;99.90;;;;;;5052343;28;20476;-87
2022/10/12 10:11:29;;;;;;;10.03;4.20;;;14.20;99.90;;;;;;5054174;28;20967;-89
2022/10/12 10:13:57;;;;;;;10.00;3.53;;;14.30;99.90;;;;;;5055424;28;20450;-89
2022/10/12 10:16:27;;;;;;;6.60;3.03;;;14.70;99.90;;;;;;5056154;28;20508;-89
2022/10/12 10:18:59;;;;;;;6.90;3.00;;;15.00;99.90;;;;;;5053712;28;20477;-89
2022/10/12 10:21:30;;;;;;;8.13;3.07;;;15.50;99.90;;;;;;5053990;28;20451;-89
2022/10/12 10:23:59;;;;;;;8.50;3.17;;;16.20;99.90;;;;;;5053050;28;20487;-87
2022/10/12 10:26:30;;;;;;;8.80;3.03;;;16.80;99.90;;;;;;5052035;28;20474;-88
2022/10/12 10:29:15;;;;;;;10.40;3.27;;;17.10;99.90;;;;;;5052214;28;20538;-87
2022/10/12 10:31:45;;;;;;;9.30;3.43;;;17.40;99.90;;;;;;5052933;28;20452;-87
2022/10/12 10:34:20;;;;;;;8.17;3.10;;;17.80;99.90;;;;;;5052408;28;20459;-87
2022/10/12 10:36:48;;;;;;;7.30;3.10;;;18.30;99.90;;;;;;5052001;28;20452;-86
2022/10/12 10:39:23;;;;;;;7.73;2.37;;;18.60;99.90;;;;;;5051526;28;20477;-86
2022/10/12 10:41:52;;;;;;;8.63;3.50;;;19.00;99.90;;;;;;5051550;28;20508;-87
2022/10/12 10:44:28;;;;;;;13.27;3.60;;;19.30;99.90;;;;;;5052507;28;20477;-87
2022/10/12 10:46:59;;;;;;;7.63;2.57;;;19.40;99.90;;;;;;5050675;28;20466;-86
2022/10/12 10:49:35;;;;;;;9.33;3.43;;;19.30;99.90;;;;;;5048656;28;20587;-87
2022/10/12 10:52:03;;;;;;;9.43;2.47;;;19.10;99.90;;;;;;5054321;28;20453;-87
2022/10/12 10:54:32;;;;;;;10.80;3.00;;;19.30;99.90;;;;;;5050246;28;20459;-86
2022/10/12 10:57:06;;;;;;;7.73;2.90;;;19.70;99.90;;;;;;5049765;28;20458;-86
2022/10/12 10:59:50;;;;;;;7.13;2.27;;;20.20;99.90;;;;;;5051010;28;20482;-86
2022/10/12 11:02:29;;;;;;;7.73;2.60;;;20.90;99.90;;;;;;5050491;28;20985;-87
2022/10/12 11:05:04;;;;;;;7.57;2.77;;;21.20;99.90;;;;;;5049271;28;20506;-86
2022/10/12 11:07:37;;;;;;;5.47;2.27;;;21.50;99.90;;;;;;5053989;28;20448;-87
2022/10/12 11:10:15;;;;;;;5.77;2.20;;;21.60;99.90;;;;;;5061055;28;20456;-87
2022/10/12 11:12:48;;;;;;;4.60;2.00;;;22.10;99.90;;;;;;5056458;28;20955;-87
2022/10/12 11:15:22;;;;;;;7.93;2.47;;;22.10;99.90;;;;;;5062103;28;20444;-88
2022/10/12 11:17:54;;;;;;;5.63;1.90;;;22.80;99.90;;;;;;5059459;28;20495;-88
2022/10/12 11:20:47;;;;;;;5.60;2.33;;;23.20;99.90;;;;;;5057159;28;20452;-88
2022/10/12 11:23:28;;;;;;;6.77;2.20;;;22.90;99.90;;;;;;5038033;28;20460;-88
2022/10/12 11:26:08;;;;;;;5.00;1.83;;;23.00;99.90;;;;;;5054888;28;20447;-86
2022/10/12 11:28:37;;;;;;;3.90;1.80;;;22.80;99.90;;;;;;5057710;28;20471;-87
2022/10/12 11:31:07;;;;;;;4.70;2.10;;;22.80;99.90;;;;;;5055882;28;20451;-87
2022/10/12 11:33:38;;;;;;;8.37;2.00;;;22.50;99.90;;;;;;5055924;28;20471;-88
2022/10/12 11:36:09;;;;;;;6.17;2.00;;;23.00;99.90;;;;;;5058172;28;20466;-86
2022/10/12 11:38:42;;;;;;;7.30;2.23;;;23.20;99.90;;;;;;5058909;28;20486;-87
2022/10/12 11:41:13;;;;;;;6.20;1.83;;;23.70;99.90;;;;;;5063343;28;20527;-88
2022/10/12 11:43:46;;;;;;;11.47;2.93;;;24.10;98.00;;;;;;5074163;28;20527;-86
2022/10/12 11:46:17;;;;;;;10.10;3.90;;;24.20;99.90;;;;;;5062362;28;20460;-87
2022/10/12 11:48:52;;;;;;;9.60;2.30;;;24.20;99.90;;;;;;5055040;28;20490;-87
2022/10/12 11:51:19;;;;;;;7.50;2.27;;;23.90;99.90;;;;;;5057702;28;20907;-88
2022/10/12 11:53:56;;;;;;;4.87;1.90;;;23.20;99.90;;;;;;5056956;28;20452;-87
2022/10/12 11:59:19;;;;;;;5.37;1.70;;;22.60;99.60;;;;;;5061412;28;20999;-86
2022/10/12 12:02:05;;;;;;;6.57;2.17;;;22.70;99.90;;;;;;5068203;28;20545;-86
2022/10/12 12:04:35;;;;;;;3.97;1.50;;;22.70;99.90;;;;;;5062383;28;21010;-85
2022/10/12 12:07:03;;;;;;;7.20;2.40;;;22.90;99.90;;;;;;5057686;28;20494;-86
2022/10/12 12:09:41;;;;;;;9.00;1.70;;;23.00;98.10;;;;;;5056242;28;20475;-86
2022/10/12 12:12:18;;;;;;;7.37;2.00;;;23.40;99.90;;;;;;5057944;28;20978;-86
2022/10/12 12:15:07;;;;;;;5.60;2.00;;;23.10;98.20;;;;;;5057408;28;20466;-86
2022/10/12 12:17:36;;;;;;;2.90;1.50;;;22.80;99.90;;;;;;5056798;28;20885;-86
2022/10/12 12:20:45;;;;;;;5.60;2.00;;;22.30;97.30;;;;;;5060051;28;20460;-86
2022/10/12 12:23:20;;;;;;;4.50;2.03;;;22.10;99.90;;;;;;5056584;28;20543;-86
2022/10/12 12:25:55;;;;;;;5.40;1.70;;;21.60;99.90;;;;;;5065130;28;20464;-86
2022/10/12 12:28:24;;;;;;;9.03;2.20;;;22.50;99.90;;;;;;5067598;28;20709;-86
2022/10/12 12:30:57;;;;;;;5.53;2.20;;;22.70;99.90;;;;;;5068062;28;20452;-85
2022/10/12 12:33:29;;;;;;;4.80;1.97;;;22.80;99.90;;;;;;5063856;28;20514;-86
2022/10/12 12:36:00;;;;;;;3.83;1.70;;;22.90;99.90;;;;;;5059772;28;20456;-86
2022/10/12 12:38:31;;;;;;;6.33;2.23;;;22.30;97.30;;;;;;5060017;28;20926;-86
2022/10/12 12:41:02;;;;;;;3.67;1.70;;;21.20;97.50;;;;;;5060790;28;20451;-85
2022/10/12 12:43:57;;;;;;;5.83;1.83;;;21.50;99.90;;;;;;5060423;28;20452;-86
2022/10/12 12:46:39;;;;;;;5.47;2.23;;;21.00;99.90;;;;;;5061102;28;20451;-85
2022/10/12 12:49:26;;;;;;;4.13;1.83;;;21.50;99.90;;;;;;5059073;28;20471;-85
2022/10/12 12:51:56;;;;;;;5.10;1.93;;;21.90;99.90;;;;;;5062694;28;20458;-86
2022/10/12 12:54:24;;;;;;;5.83;2.20;;;22.30;99.90;;;;;;5058022;28;20455;-85
2022/10/12 12:57:05;;;;;;;4.30;2.03;;;22.00;97.40;;;;;;5058638;28;20448;-86
2022/10/12 13:00:05;;;;;;;3.90;1.90;;;21.90;99.90;;;;;;5059117;28;20467;-86
2022/10/12 13:03:11;;;;;;;8.90;2.27;;;22.40;99.90;;;;;;5058519;28;20448;-85
2022/10/12 13:06:10;;;;;;;6.40;1.40;;;22.00;96.20;;;;;;5058100;28;20502;-86
2022/10/12 13:08:54;;;;;;;5.03;1.80;;;21.00;99.00;;;;;;5057914;28;20455;-85
2022/10/12 13:11:48;;;;;;;5.80;2.20;;;20.00;99.80;;;;;;5059495;28;20448;-85
2022/10/12 13:14:29;;;;;;;4.77;1.50;;;20.00;99.90;;;;;;5057768;28;20460;-85
2022/10/12 13:17:07;;;;;;;3.53;1.40;;;19.80;99.90;;;;;;5056849;28;20451;-85